sensor_id;sensor_type;location;lat;lon;timestamp;temperature;humidity
69503;SHT31;56704;54.242;12.442;2023-04-03T00:01:06;0.65;83.14
69503;SHT31;56704;54.242;12.442;2023-04-03T00:03:33;0.66;83.17
69503;SHT31;56704;54.242;12.442;2023-04-03T00:06:00;0.72;83.52
69503;SHT31;56704;54.242;12.442;2023-04-03T00:08:28;0.69;83.29
69503;SHT31;56704;54.242;12.442;2023-04-03T00:10:56;0.62;83.33
69503;SHT31;56704;54.242;12.442;2023-04-03T00:13:22;0.64;83.43
69503;SHT31;56704;54.242;12.442;2023-04-03T00:15:49;0.58;83.60
69503;SHT31;56704;54.242;12.442;2023-04-03T00:18:16;0.58;83.53
69503;SHT31;56704;54.242;12.442;2023-04-03T00:20:42;0.56;83.78
69503;SHT31;56704;54.242;12.442;2023-04-03T00:23:09;0.54;83.60
69503;SHT31;56704;54.242;12.442;2023-04-03T00:25:40;0.59;84.06
69503;SHT31;56704;54.242;12.442;2023-04-03T00:28:06;0.59;84.26
69503;SHT31;56704;54.242;12.442;2023-04-03T00:30:33;0.64;83.86
69503;SHT31;56704;54.242;12.442;2023-04-03T00:33:00;0.68;83.91
69503;SHT31;56704;54.242;12.442;2023-04-03T00:35:27;0.70;83.35
69503;SHT31;56704;54.242;12.442;2023-04-03T00:37:54;0.77;83.15
69503;SHT31;56704;54.242;12.442;2023-04-03T00:40:23;0.70;82.91
69503;SHT31;56704;54.242;12.442;2023-04-03T00:42:55;0.73;83.25
69503;SHT31;56704;54.242;12.442;2023-04-03T00:45:30;0.73;83.32
69503;SHT31;56704;54.242;12.442;2023-04-03T00:47:56;0.73;83.19
69503;SHT31;56704;54.242;12.442;2023-04-03T00:50:25;0.75;83.52
69503;SHT31;56704;54.242;12.442;2023-04-03T00:52:52;0.80;82.96
69503;SHT31;56704;54.242;12.442;2023-04-03T00:55:19;0.76;83.54
69503;SHT31;56704;54.242;12.442;2023-04-03T00:57:46;0.72;83.13
69503;SHT31;56704;54.242;12.442;2023-04-03T01:00:17;0.75;83.08
69503;SHT31;56704;54.242;12.442;2023-04-03T01:02:44;0.72;83.54
69503;SHT31;56704;54.242;12.442;2023-04-03T01:05:12;0.68;82.81
69503;SHT31;56704;54.242;12.442;2023-04-03T01:07:39;0.70;83.10
69503;SHT31;56704;54.242;12.442;2023-04-03T01:10:11;0.69;83.16
69503;SHT31;56704;54.242;12.442;2023-04-03T01:12:40;0.65;83.82
69503;SHT31;56704;54.242;12.442;2023-04-03T01:15:11;0.70;83.59
69503;SHT31;56704;54.242;12.442;2023-04-03T01:17:41;0.73;83.67
69503;SHT31;56704;54.242;12.442;2023-04-03T01:23:37;0.76;83.57
69503;SHT31;56704;54.242;12.442;2023-04-03T01:26:08;0.76;83.50
69503;SHT31;56704;54.242;12.442;2023-04-03T01:28:35;0.73;83.27
69503;SHT31;56704;54.242;12.442;2023-04-03T01:31:13;0.83;83.54
69503;SHT31;56704;54.242;12.442;2023-04-03T01:33:45;0.85;83.16
69503;SHT31;56704;54.242;12.442;2023-04-03T01:36:15;0.97;83.07
69503;SHT31;56704;54.242;12.442;2023-04-03T01:38:42;0.87;82.68
69503;SHT31;56704;54.242;12.442;2023-04-03T01:41:08;0.92;82.78
69503;SHT31;56704;54.242;12.442;2023-04-03T01:43:35;0.93;82.56
69503;SHT31;56704;54.242;12.442;2023-04-03T01:46:01;0.89;82.64
69503;SHT31;56704;54.242;12.442;2023-04-03T01:48:28;0.93;82.50
69503;SHT31;56704;54.242;12.442;2023-04-03T01:50:56;0.87;82.88
69503;SHT31;56704;54.242;12.442;2023-04-03T01:53:23;0.92;82.60
69503;SHT31;56704;54.242;12.442;2023-04-03T01:55:50;0.95;82.32
69503;SHT31;56704;54.242;12.442;2023-04-03T01:58:16;0.96;82.31
69503;SHT31;56704;54.242;12.442;2023-04-03T02:00:43;0.92;82.44
69503;SHT31;56704;54.242;12.442;2023-04-03T02:03:10;0.90;82.49
69503;SHT31;56704;54.242;12.442;2023-04-03T02:05:37;0.95;82.43
69503;SHT31;56704;54.242;12.442;2023-04-03T02:08:05;0.96;82.34
69503;SHT31;56704;54.242;12.442;2023-04-03T02:10:32;1.01;82.13
69503;SHT31;56704;54.242;12.442;2023-04-03T02:12:59;0.96;82.15
69503;SHT31;56704;54.242;12.442;2023-04-03T02:15:25;0.97;82.30
69503;SHT31;56704;54.242;12.442;2023-04-03T02:17:52;0.89;82.15
69503;SHT31;56704;54.242;12.442;2023-04-03T02:20:20;0.87;82.47
69503;SHT31;56704;54.242;12.442;2023-04-03T02:22:46;0.87;82.47
69503;SHT31;56704;54.242;12.442;2023-04-03T02:25:14;0.79;82.41
69503;SHT31;56704;54.242;12.442;2023-04-03T02:27:42;0.80;82.19
69503;SHT31;56704;54.242;12.442;2023-04-03T02:30:10;0.76;82.46
69503;SHT31;56704;54.242;12.442;2023-04-03T02:32:36;0.83;82.89
69503;SHT31;56704;54.242;12.442;2023-04-03T02:35:04;0.79;82.75
69503;SHT31;56704;54.242;12.442;2023-04-03T02:37:31;0.73;82.78
69503;SHT31;56704;54.242;12.442;2023-04-03T02:39:57;0.75;83.02
69503;SHT31;56704;54.242;12.442;2023-04-03T02:42:25;0.73;82.58
69503;SHT31;56704;54.242;12.442;2023-04-03T02:44:52;0.77;82.89
69503;SHT31;56704;54.242;12.442;2023-04-03T02:47:19;0.73;82.80
69503;SHT31;56704;54.242;12.442;2023-04-03T02:49:46;0.76;82.05
69503;SHT31;56704;54.242;12.442;2023-04-03T02:52:13;0.73;82.02
69503;SHT31;56704;54.242;12.442;2023-04-03T02:54:39;0.68;82.08
69503;SHT31;56704;54.242;12.442;2023-04-03T02:57:06;0.66;82.07
69503;SHT31;56704;54.242;12.442;2023-04-03T02:59:35;0.70;82.60
69503;SHT31;56704;54.242;12.442;2023-04-03T03:02:02;0.70;82.74
69503;SHT31;56704;54.242;12.442;2023-04-03T03:04:29;0.70;83.06
69503;SHT31;56704;54.242;12.442;2023-04-03T03:06:55;0.72;82.89
69503;SHT31;56704;54.242;12.442;2023-04-03T03:09:22;0.86;83.07
69503;SHT31;56704;54.242;12.442;2023-04-03T03:11:49;0.92;82.27
69503;SHT31;56704;54.242;12.442;2023-04-03T03:14:15;0.87;81.74
69503;SHT31;56704;54.242;12.442;2023-04-03T03:16:43;0.80;81.28
69503;SHT31;56704;54.242;12.442;2023-04-03T03:19:10;0.76;81.31
69503;SHT31;56704;54.242;12.442;2023-04-03T03:21:37;0.69;81.43
69503;SHT31;56704;54.242;12.442;2023-04-03T03:24:04;0.68;82.05
69503;SHT31;56704;54.242;12.442;2023-04-03T03:26:31;0.75;81.89
69503;SHT31;56704;54.242;12.442;2023-04-03T03:28:57;0.70;81.61
69503;SHT31;56704;54.242;12.442;2023-04-03T03:31:24;0.65;81.65
69503;SHT31;56704;54.242;12.442;2023-04-03T03:33:52;0.66;81.48
69503;SHT31;56704;54.242;12.442;2023-04-03T03:36:18;0.61;81.82
69503;SHT31;56704;54.242;12.442;2023-04-03T03:38:45;0.56;81.74
69503;SHT31;56704;54.242;12.442;2023-04-03T03:41:12;0.54;81.86
69503;SHT31;56704;54.242;12.442;2023-04-03T03:43:38;0.48;81.73
69503;SHT31;56704;54.242;12.442;2023-04-03T03:46:05;0.54;82.91
69503;SHT31;56704;54.242;12.442;2023-04-03T03:48:31;0.55;83.32
69503;SHT31;56704;54.242;12.442;2023-04-03T03:51:00;0.66;83.32
69503;SHT31;56704;54.242;12.442;2023-04-03T03:53:26;0.62;82.87
69503;SHT31;56704;54.242;12.442;2023-04-03T03:55:53;0.72;82.62
69503;SHT31;56704;54.242;12.442;2023-04-03T03:58:19;0.68;82.65
69503;SHT31;56704;54.242;12.442;2023-04-03T04:00:46;0.70;82.66
69503;SHT31;56704;54.242;12.442;2023-04-03T04:03:13;0.70;82.21
69503;SHT31;56704;54.242;12.442;2023-04-03T04:05:39;0.69;82.69
69503;SHT31;56704;54.242;12.442;2023-04-03T04:08:07;0.64;82.88
69503;SHT31;56704;54.242;12.442;2023-04-03T04:10:35;0.68;82.86
69503;SHT31;56704;54.242;12.442;2023-04-03T04:13:02;0.61;82.60
69503;SHT31;56704;54.242;12.442;2023-04-03T04:15:28;0.69;83.29
69503;SHT31;56704;54.242;12.442;2023-04-03T04:17:56;0.65;82.80
69503;SHT31;56704;54.242;12.442;2023-04-03T04:20:23;0.69;83.20
69503;SHT31;56704;54.242;12.442;2023-04-03T04:22:50;0.68;82.83
69503;SHT31;56704;54.242;12.442;2023-04-03T04:25:18;0.64;82.89
69503;SHT31;56704;54.242;12.442;2023-04-03T04:27:44;0.59;82.74
69503;SHT31;56704;54.242;12.442;2023-04-03T04:30:12;0.51;82.61
69503;SHT31;56704;54.242;12.442;2023-04-03T04:32:39;0.52;82.99
69503;SHT31;56704;54.242;12.442;2023-04-03T04:35:06;0.62;83.30
69503;SHT31;56704;54.242;12.442;2023-04-03T04:37:33;0.56;82.77
69503;SHT31;56704;54.242;12.442;2023-04-03T04:39:59;0.54;82.58
69503;SHT31;56704;54.242;12.442;2023-04-03T04:42:28;0.48;82.52
69503;SHT31;56704;54.242;12.442;2023-04-03T04:44:54;0.45;82.43
69503;SHT31;56704;54.242;12.442;2023-04-03T04:47:21;0.46;82.06
69503;SHT31;56704;54.242;12.442;2023-04-03T04:49:47;0.42;81.62
69503;SHT31;56704;54.242;12.442;2023-04-03T04:52:14;0.46;81.59
69503;SHT31;56704;54.242;12.442;2023-04-03T04:54:41;0.44;81.30
69503;SHT31;56704;54.242;12.442;2023-04-03T04:57:08;0.40;81.37
69503;SHT31;56704;54.242;12.442;2023-04-03T04:59:37;0.37;81.39
69503;SHT31;56704;54.242;12.442;2023-04-03T05:02:03;0.38;80.59
69503;SHT31;56704;54.242;12.442;2023-04-03T05:04:30;0.42;80.43
69503;SHT31;56704;54.242;12.442;2023-04-03T05:06:57;0.45;80.10
69503;SHT31;56704;54.242;12.442;2023-04-03T05:09:24;0.51;80.08
69503;SHT31;56704;54.242;12.442;2023-04-03T05:11:51;0.48;79.80
69503;SHT31;56704;54.242;12.442;2023-04-03T05:14:18;0.49;79.53
69503;SHT31;56704;54.242;12.442;2023-04-03T05:16:46;0.46;79.70
69503;SHT31;56704;54.242;12.442;2023-04-03T05:19:12;0.49;79.84
69503;SHT31;56704;54.242;12.442;2023-04-03T05:21:39;0.52;79.47
69503;SHT31;56704;54.242;12.442;2023-04-03T05:24:06;0.56;79.43
69503;SHT31;56704;54.242;12.442;2023-04-03T05:26:34;0.59;78.62
69503;SHT31;56704;54.242;12.442;2023-04-03T05:29:03;0.64;78.79
69503;SHT31;56704;54.242;12.442;2023-04-03T05:31:30;0.69;78.83
69503;SHT31;56704;54.242;12.442;2023-04-03T05:33:58;0.65;78.45
69503;SHT31;56704;54.242;12.442;2023-04-03T05:36:25;0.66;78.72
69503;SHT31;56704;54.242;12.442;2023-04-03T05:38:52;0.66;78.48
69503;SHT31;56704;54.242;12.442;2023-04-03T05:41:19;0.75;78.51
69503;SHT31;56704;54.242;12.442;2023-04-03T05:43:46;0.83;78.35
69503;SHT31;56704;54.242;12.442;2023-04-03T05:46:13;0.87;78.01
69503;SHT31;56704;54.242;12.442;2023-04-03T05:48:40;0.93;78.03
69503;SHT31;56704;54.242;12.442;2023-04-03T05:51:14;0.96;77.99
69503;SHT31;56704;54.242;12.442;2023-04-03T05:53:41;0.99;77.87
69503;SHT31;56704;54.242;12.442;2023-04-03T05:56:07;1.03;78.01
69503;SHT31;56704;54.242;12.442;2023-04-03T05:58:34;1.03;77.83
69503;SHT31;56704;54.242;12.442;2023-04-03T06:01:00;1.04;78.05
69503;SHT31;56704;54.242;12.442;2023-04-03T06:03:27;1.10;78.18
69503;SHT31;56704;54.242;12.442;2023-04-03T06:05:54;1.08;77.93
69503;SHT31;56704;54.242;12.442;2023-04-03T06:08:22;1.15;78.34
69503;SHT31;56704;54.242;12.442;2023-04-03T06:10:49;1.19;78.27
69503;SHT31;56704;54.242;12.442;2023-04-03T06:13:16;1.22;78.16
69503;SHT31;56704;54.242;12.442;2023-04-03T06:15:43;1.34;78.07
69503;SHT31;56704;54.242;12.442;2023-04-03T06:18:10;1.34;77.30
69503;SHT31;56704;54.242;12.442;2023-04-03T06:20:37;1.40;77.20
69503;SHT31;56704;54.242;12.442;2023-04-03T06:23:03;1.40;77.41
69503;SHT31;56704;54.242;12.442;2023-04-03T06:25:31;1.44;77.65
69503;SHT31;56704;54.242;12.442;2023-04-03T06:27:58;1.52;77.54
69503;SHT31;56704;54.242;12.442;2023-04-03T06:30:26;1.59;77.26
69503;SHT31;56704;54.242;12.442;2023-04-03T06:32:52;1.57;77.27
69503;SHT31;56704;54.242;12.442;2023-04-03T06:35:19;1.64;77.13
69503;SHT31;56704;54.242;12.442;2023-04-03T06:37:46;1.67;77.49
69503;SHT31;56704;54.242;12.442;2023-04-03T06:40:19;1.74;77.42
69503;SHT31;56704;54.242;12.442;2023-04-03T06:42:48;1.82;77.67
69503;SHT31;56704;54.242;12.442;2023-04-03T06:45:15;1.95;77.79
69503;SHT31;56704;54.242;12.442;2023-04-03T06:47:41;2.06;77.67
69503;SHT31;56704;54.242;12.442;2023-04-03T06:50:10;2.41;77.11
69503;SHT31;56704;54.242;12.442;2023-04-03T06:52:39;2.88;76.02
69503;SHT31;56704;54.242;12.442;2023-04-03T06:55:07;3.40;75.10
69503;SHT31;56704;54.242;12.442;2023-04-03T06:57:34;3.83;77.38
69503;SHT31;56704;54.242;12.442;2023-04-03T07:00:04;4.17;72.73
69503;SHT31;56704;54.242;12.442;2023-04-03T07:02:31;4.69;73.79
69503;SHT31;56704;54.242;12.442;2023-04-03T07:04:57;5.07;71.67
69503;SHT31;56704;54.242;12.442;2023-04-03T07:07:24;5.26;69.06
69503;SHT31;56704;54.242;12.442;2023-04-03T07:09:51;5.44;68.05
69503;SHT31;56704;54.242;12.442;2023-04-03T07:12:18;5.63;67.62
69503;SHT31;56704;54.242;12.442;2023-04-03T07:14:44;5.82;68.18
69503;SHT31;56704;54.242;12.442;2023-04-03T07:17:12;6.00;65.31
69503;SHT31;56704;54.242;12.442;2023-04-03T07:19:39;6.16;64.54
69503;SHT31;56704;54.242;12.442;2023-04-03T07:22:05;6.31;63.82
69503;SHT31;56704;54.242;12.442;2023-04-03T07:24:33;6.26;60.78
69503;SHT31;56704;54.242;12.442;2023-04-03T07:27:00;6.24;61.15
69503;SHT31;56704;54.242;12.442;2023-04-03T07:29:27;6.31;65.86
69503;SHT31;56704;54.242;12.442;2023-04-03T07:31:54;6.31;63.09
69503;SHT31;56704;54.242;12.442;2023-04-03T07:34:23;6.42;63.62
69503;SHT31;56704;54.242;12.442;2023-04-03T07:36:50;6.34;61.18
69503;SHT31;56704;54.242;12.442;2023-04-03T07:39:16;6.33;61.24
69503;SHT31;56704;54.242;12.442;2023-04-03T07:41:43;6.02;59.03
69503;SHT31;56704;54.242;12.442;2023-04-03T07:44:09;6.02;59.87
69503;SHT31;56704;54.242;12.442;2023-04-03T07:46:36;6.09;61.81
69503;SHT31;56704;54.242;12.442;2023-04-03T07:49:03;5.99;60.39
69503;SHT31;56704;54.242;12.442;2023-04-03T07:51:31;6.17;62.24
69503;SHT31;56704;54.242;12.442;2023-04-03T07:53:57;6.30;61.47
69503;SHT31;56704;54.242;12.442;2023-04-03T07:56:24;6.21;58.21
69503;SHT31;56704;54.242;12.442;2023-04-03T07:58:51;5.65;58.13
69503;SHT31;56704;54.242;12.442;2023-04-03T08:01:18;5.48;59.56
69503;SHT31;56704;54.242;12.442;2023-04-03T08:03:46;5.49;60.32
69503;SHT31;56704;54.242;12.442;2023-04-03T08:06:12;5.55;60.52
69503;SHT31;56704;54.242;12.442;2023-04-03T08:08:41;5.72;61.72
69503;SHT31;56704;54.242;12.442;2023-04-03T08:11:09;5.90;60.37
69503;SHT31;56704;54.242;12.442;2023-04-03T08:13:36;6.17;59.75
69503;SHT31;56704;54.242;12.442;2023-04-03T08:16:09;6.24;58.94
69503;SHT31;56704;54.242;12.442;2023-04-03T08:18:35;6.21;57.02
69503;SHT31;56704;54.242;12.442;2023-04-03T08:21:06;6.27;57.67
69503;SHT31;56704;54.242;12.442;2023-04-03T08:23:32;6.10;57.18
69503;SHT31;56704;54.242;12.442;2023-04-03T08:26:05;6.19;57.11
69503;SHT31;56704;54.242;12.442;2023-04-03T08:28:32;6.41;56.32
69503;SHT31;56704;54.242;12.442;2023-04-03T08:31:03;6.61;57.26
69503;SHT31;56704;54.242;12.442;2023-04-03T08:33:30;6.72;56.00
69503;SHT31;56704;54.242;12.442;2023-04-03T08:35:56;6.78;54.93
69503;SHT31;56704;54.242;12.442;2023-04-03T08:38:23;6.72;54.89
69503;SHT31;56704;54.242;12.442;2023-04-03T08:41:01;6.84;53.38
69503;SHT31;56704;54.242;12.442;2023-04-03T08:43:35;6.91;51.97
69503;SHT31;56704;54.242;12.442;2023-04-03T08:46:05;6.87;54.29
69503;SHT31;56704;54.242;12.442;2023-04-03T08:48:36;6.75;54.50
69503;SHT31;56704;54.242;12.442;2023-04-03T08:51:11;6.47;54.80
69503;SHT31;56704;54.242;12.442;2023-04-03T08:53:42;6.24;53.70
69503;SHT31;56704;54.242;12.442;2023-04-03T08:56:11;6.10;54.39
69503;SHT31;56704;54.242;12.442;2023-04-03T08:58:44;6.24;52.19
69503;SHT31;56704;54.242;12.442;2023-04-03T09:01:18;6.36;50.19
69503;SHT31;56704;54.242;12.442;2023-04-03T09:03:45;6.48;49.55
69503;SHT31;56704;54.242;12.442;2023-04-03T09:06:14;6.67;51.60
69503;SHT31;56704;54.242;12.442;2023-04-03T09:08:45;6.85;51.57
69503;SHT31;56704;54.242;12.442;2023-04-03T09:11:17;6.74;48.49
69503;SHT31;56704;54.242;12.442;2023-04-03T09:13:49;6.91;49.33
69503;SHT31;56704;54.242;12.442;2023-04-03T09:16:25;7.24;50.52
69503;SHT31;56704;54.242;12.442;2023-04-03T09:18:58;6.98;46.89
69503;SHT31;56704;54.242;12.442;2023-04-03T09:21:31;7.22;47.32
69503;SHT31;56704;54.242;12.442;2023-04-03T09:24:01;7.24;47.08
69503;SHT31;56704;54.242;12.442;2023-04-03T09:26:34;7.44;46.94
69503;SHT31;56704;54.242;12.442;2023-04-03T09:29:06;7.66;48.49
69503;SHT31;56704;54.242;12.442;2023-04-03T09:31:37;7.75;47.89
69503;SHT31;56704;54.242;12.442;2023-04-03T09:34:07;7.90;48.74
69503;SHT31;56704;54.242;12.442;2023-04-03T09:36:45;8.01;46.61
69503;SHT31;56704;54.242;12.442;2023-04-03T09:39:14;8.19;45.75
69503;SHT31;56704;54.242;12.442;2023-04-03T09:41:55;8.28;45.86
69503;SHT31;56704;54.242;12.442;2023-04-03T09:44:24;7.99;48.02
69503;SHT31;56704;54.242;12.442;2023-04-03T09:46:51;8.06;47.09
69503;SHT31;56704;54.242;12.442;2023-04-03T09:49:18;8.25;46.48
69503;SHT31;56704;54.242;12.442;2023-04-03T09:51:45;8.35;46.32
69503;SHT31;56704;54.242;12.442;2023-04-03T09:54:31;8.63;47.24
69503;SHT31;56704;54.242;12.442;2023-04-03T09:57:02;8.91;46.79
69503;SHT31;56704;54.242;12.442;2023-04-03T09:59:31;8.96;47.18
69503;SHT31;56704;54.242;12.442;2023-04-03T10:01:59;9.08;44.79
69503;SHT31;56704;54.242;12.442;2023-04-03T10:04:37;9.03;45.35
69503;SHT31;56704;54.242;12.442;2023-04-03T10:07:31;9.17;43.29
69503;SHT31;56704;54.242;12.442;2023-04-03T10:10:00;9.39;45.79
69503;SHT31;56704;54.242;12.442;2023-04-03T10:12:30;9.35;44.34
69503;SHT31;56704;54.242;12.442;2023-04-03T10:14:57;9.58;44.41
69503;SHT31;56704;54.242;12.442;2023-04-03T10:17:36;9.83;42.78
69503;SHT31;56704;54.242;12.442;2023-04-03T10:20:14;9.28;44.06
69503;SHT31;56704;54.242;12.442;2023-04-03T10:22:56;9.11;44.64
69503;SHT31;56704;54.242;12.442;2023-04-03T10:25:29;9.28;45.30
69503;SHT31;56704;54.242;12.442;2023-04-03T10:28:02;9.39;44.59
69503;SHT31;56704;54.242;12.442;2023-04-03T10:30:36;9.63;45.17
69503;SHT31;56704;54.242;12.442;2023-04-03T10:33:20;9.82;42.94
69503;SHT31;56704;54.242;12.442;2023-04-03T10:35:57;10.13;42.40
69503;SHT31;56704;54.242;12.442;2023-04-03T10:38:33;9.97;44.34
69503;SHT31;56704;54.242;12.442;2023-04-03T10:41:09;9.58;43.94
69503;SHT31;56704;54.242;12.442;2023-04-03T10:43:43;9.65;42.66
69503;SHT31;56704;54.242;12.442;2023-04-03T10:46:13;9.85;43.91
69503;SHT31;56704;54.242;12.442;2023-04-03T10:49:02;9.93;42.55
69503;SHT31;56704;54.242;12.442;2023-04-03T10:51:37;10.04;41.35
69503;SHT31;56704;54.242;12.442;2023-04-03T10:54:11;10.37;42.48
69503;SHT31;56704;54.242;12.442;2023-04-03T10:56:41;10.09;41.70
69503;SHT31;56704;54.242;12.442;2023-04-03T10:59:21;10.30;41.73
69503;SHT31;56704;54.242;12.442;2023-04-03T11:01:53;10.31;42.10
69503;SHT31;56704;54.242;12.442;2023-04-03T11:04:21;10.45;41.58
69503;SHT31;56704;54.242;12.442;2023-04-03T11:06:53;10.89;41.40
69503;SHT31;56704;54.242;12.442;2023-04-03T11:09:26;10.64;40.87
69503;SHT31;56704;54.242;12.442;2023-04-03T11:11:56;10.67;39.58
69503;SHT31;56704;54.242;12.442;2023-04-03T11:14:28;11.22;39.41
69503;SHT31;56704;54.242;12.442;2023-04-03T11:17:04;11.34;40.27
69503;SHT31;56704;54.242;12.442;2023-04-03T11:19:35;11.27;39.69
69503;SHT31;56704;54.242;12.442;2023-04-03T11:22:08;11.13;40.25
69503;SHT31;56704;54.242;12.442;2023-04-03T11:24:38;11.27;40.44
69503;SHT31;56704;54.242;12.442;2023-04-03T11:27:12;11.61;41.52
69503;SHT31;56704;54.242;12.442;2023-04-03T11:29:43;11.85;39.99
69503;SHT31;56704;54.242;12.442;2023-04-03T11:32:25;12.36;39.59
69503;SHT31;56704;54.242;12.442;2023-04-03T11:34:56;12.40;35.43
69503;SHT31;56704;54.242;12.442;2023-04-03T11:37:28;12.40;37.43
69503;SHT31;56704;54.242;12.442;2023-04-03T11:39:59;12.15;36.07
69503;SHT31;56704;54.242;12.442;2023-04-03T11:42:32;12.21;36.77
69503;SHT31;56704;54.242;12.442;2023-04-03T11:45:29;12.25;38.30
69503;SHT31;56704;54.242;12.442;2023-04-03T11:47:58;12.45;37.60
69503;SHT31;56704;54.242;12.442;2023-04-03T11:50:47;12.64;37.27
69503;SHT31;56704;54.242;12.442;2023-04-03T11:53:34;12.69;36.23
69503;SHT31;56704;54.242;12.442;2023-04-03T11:56:31;12.77;37.44
69503;SHT31;56704;54.242;12.442;2023-04-03T11:59:21;13.14;36.68
69503;SHT31;56704;54.242;12.442;2023-04-03T12:01:50;13.21;36.13
69503;SHT31;56704;54.242;12.442;2023-04-03T12:04:18;13.07;35.46
69503;SHT31;56704;54.242;12.442;2023-04-03T12:07:11;13.17;34.16
69503;SHT31;56704;54.242;12.442;2023-04-03T12:10:01;13.14;35.78
69503;SHT31;56704;54.242;12.442;2023-04-03T12:12:35;13.08;33.75
69503;SHT31;56704;54.242;12.442;2023-04-03T12:15:22;12.87;35.57
69503;SHT31;56704;54.242;12.442;2023-04-03T12:17:51;13.18;35.86
69503;SHT31;56704;54.242;12.442;2023-04-03T12:20:54;13.41;35.33
69503;SHT31;56704;54.242;12.442;2023-04-03T12:23:56;13.79;36.81
69503;SHT31;56704;54.242;12.442;2023-04-03T12:26:26;13.95;34.68
69503;SHT31;56704;54.242;12.442;2023-04-03T12:28:54;14.06;36.13
69503;SHT31;56704;54.242;12.442;2023-04-03T12:31:25;14.58;33.15
69503;SHT31;56704;54.242;12.442;2023-04-03T12:34:12;15.38;32.59
69503;SHT31;56704;54.242;12.442;2023-04-03T12:36:50;15.63;32.74
69503;SHT31;56704;54.242;12.442;2023-04-03T12:39:48;16.11;30.00
69503;SHT31;56704;54.242;12.442;2023-04-03T12:42:29;16.96;30.07
69503;SHT31;56704;54.242;12.442;2023-04-03T12:45:02;16.55;30.00
69503;SHT31;56704;54.242;12.442;2023-04-03T12:47:34;17.27;29.73
69503;SHT31;56704;54.242;12.442;2023-04-03T12:50:13;16.94;29.45
69503;SHT31;56704;54.242;12.442;2023-04-03T12:52:45;17.71;29.11
69503;SHT31;56704;54.242;12.442;2023-04-03T12:55:15;18.29;28.96
69503;SHT31;56704;54.242;12.442;2023-04-03T12:57:43;17.49;29.60
69503;SHT31;56704;54.242;12.442;2023-04-03T13:00:31;17.88;29.65
69503;SHT31;56704;54.242;12.442;2023-04-03T13:02:59;18.20;28.74
69503;SHT31;56704;54.242;12.442;2023-04-03T13:05:28;18.43;28.89
69503;SHT31;56704;54.242;12.442;2023-04-03T13:07:58;18.57;27.39
69503;SHT31;56704;54.242;12.442;2023-04-03T13:10:27;18.63;27.39
69503;SHT31;56704;54.242;12.442;2023-04-03T13:12:55;18.17;28.69
69503;SHT31;56704;54.242;12.442;2023-04-03T13:15:25;18.43;29.34
69503;SHT31;56704;54.242;12.442;2023-04-03T13:17:53;16.58;27.51
69503;SHT31;56704;54.242;12.442;2023-04-03T13:20:23;16.81;29.84
69503;SHT31;56704;54.242;12.442;2023-04-03T13:22:56;17.23;29.91
69503;SHT31;56704;54.242;12.442;2023-04-03T13:25:25;17.41;29.99
69503;SHT31;56704;54.242;12.442;2023-04-03T13:27:53;17.62;30.62
69503;SHT31;56704;54.242;12.442;2023-04-03T13:30:26;17.86;31.05
69503;SHT31;56704;54.242;12.442;2023-04-03T13:32:54;18.02;27.92
69503;SHT31;56704;54.242;12.442;2023-04-03T13:35:31;18.57;26.17
69503;SHT31;56704;54.242;12.442;2023-04-03T13:38:02;18.56;28.16
69503;SHT31;56704;54.242;12.442;2023-04-03T13:40:30;18.34;26.14
69503;SHT31;56704;54.242;12.442;2023-04-03T13:43:03;18.25;27.84
69503;SHT31;56704;54.242;12.442;2023-04-03T13:45:31;17.65;28.19
69503;SHT31;56704;54.242;12.442;2023-04-03T13:48:14;17.76;28.33
69503;SHT31;56704;54.242;12.442;2023-04-03T13:50:54;17.54;27.95
69503;SHT31;56704;54.242;12.442;2023-04-03T13:53:23;16.73;30.04
69503;SHT31;56704;54.242;12.442;2023-04-03T13:56:00;16.21;29.42
69503;SHT31;56704;54.242;12.442;2023-04-03T13:58:31;16.05;33.38
69503;SHT31;56704;54.242;12.442;2023-04-03T14:01:06;16.30;32.85
69503;SHT31;56704;54.242;12.442;2023-04-03T14:03:42;15.91;31.94
69503;SHT31;56704;54.242;12.442;2023-04-03T14:06:11;16.11;31.84
69503;SHT31;56704;54.242;12.442;2023-04-03T14:08:39;15.67;32.14
69503;SHT31;56704;54.242;12.442;2023-04-03T14:11:09;15.54;33.01
69503;SHT31;56704;54.242;12.442;2023-04-03T14:13:37;16.01;31.57
69503;SHT31;56704;54.242;12.442;2023-04-03T14:16:04;16.12;29.29
69503;SHT31;56704;54.242;12.442;2023-04-03T14:18:31;16.33;29.32
69503;SHT31;56704;54.242;12.442;2023-04-03T14:20:57;16.42;28.62
69503;SHT31;56704;54.242;12.442;2023-04-03T14:23:24;16.77;29.97
69503;SHT31;56704;54.242;12.442;2023-04-03T14:25:52;16.73;29.34
69503;SHT31;56704;54.242;12.442;2023-04-03T14:28:21;16.79;29.07
69503;SHT31;56704;54.242;12.442;2023-04-03T14:30:50;16.77;29.66
69503;SHT31;56704;54.242;12.442;2023-04-03T14:33:19;16.91;29.30
69503;SHT31;56704;54.242;12.442;2023-04-03T14:35:47;17.42;29.87
69503;SHT31;56704;54.242;12.442;2023-04-03T14:38:22;17.17;30.74
69503;SHT31;56704;54.242;12.442;2023-04-03T14:40:50;17.27;28.89
69503;SHT31;56704;54.242;12.442;2023-04-03T14:43:18;17.32;30.00
69503;SHT31;56704;54.242;12.442;2023-04-03T14:45:46;17.30;29.73
69503;SHT31;56704;54.242;12.442;2023-04-03T14:48:17;17.96;28.89
69503;SHT31;56704;54.242;12.442;2023-04-03T14:50:44;17.93;27.92
69503;SHT31;56704;54.242;12.442;2023-04-03T14:53:11;17.74;25.76
69503;SHT31;56704;54.242;12.442;2023-04-03T14:55:40;17.90;28.54
69503;SHT31;56704;54.242;12.442;2023-04-03T14:58:09;17.41;28.75
69503;SHT31;56704;54.242;12.442;2023-04-03T15:00:39;17.52;28.46
69503;SHT31;56704;54.242;12.442;2023-04-03T15:03:08;17.44;26.34
69503;SHT31;56704;54.242;12.442;2023-04-03T15:05:36;16.73;26.33
69503;SHT31;56704;54.242;12.442;2023-04-03T15:08:03;16.12;27.75
69503;SHT31;56704;54.242;12.442;2023-04-03T15:10:30;15.74;28.96
69503;SHT31;56704;54.242;12.442;2023-04-03T15:15:41;14.20;30.83
69503;SHT31;56704;54.242;12.442;2023-04-03T15:18:11;12.86;34.36
69503;SHT31;56704;54.242;12.442;2023-04-03T15:20:40;12.97;36.03
69503;SHT31;56704;54.242;12.442;2023-04-03T15:23:06;12.90;35.14
69503;SHT31;56704;54.242;12.442;2023-04-03T15:25:33;12.83;35.73
69503;SHT31;56704;54.242;12.442;2023-04-03T15:28:00;12.76;33.52
69503;SHT31;56704;54.242;12.442;2023-04-03T15:30:27;12.12;32.19
69503;SHT31;56704;54.242;12.442;2023-04-03T15:32:55;11.84;33.45
69503;SHT31;56704;54.242;12.442;2023-04-03T15:35:21;11.81;33.44
69503;SHT31;56704;54.242;12.442;2023-04-03T15:37:48;11.75;33.79
69503;SHT31;56704;54.242;12.442;2023-04-03T15:40:14;11.64;35.26
69503;SHT31;56704;54.242;12.442;2023-04-03T15:42:41;11.34;33.88
69503;SHT31;56704;54.242;12.442;2023-04-03T15:45:08;11.60;34.96
69503;SHT31;56704;54.242;12.442;2023-04-03T15:47:35;11.78;36.01